createdAt,value
2023-09-01T00:01:17.324Z,100245.00
2023-09-01T00:03:44.099Z,100237.16
2023-09-01T00:06:15.304Z,100242.03
2023-09-01T00:08:42.526Z,100245.47
2023-09-01T00:11:09.202Z,100241.16
2023-09-01T00:13:35.828Z,100245.41
2023-09-01T00:16:02.465Z,100253.91
2023-09-01T00:18:29.133Z,100251.63
2023-09-01T00:20:59.945Z,100243.19
2023-09-01T00:23:26.804Z,100248.16
2023-09-01T00:25:58.676Z,100240.41
2023-09-01T00:28:25.740Z,100236.56
2023-09-01T00:30:56.011Z,100244.66
2023-09-01T00:33:26.270Z,100248.44
2023-09-01T00:35:53.570Z,100248.44
2023-09-01T00:38:20.576Z,100247.63
2023-09-01T00:40:50.339Z,100245.25
2023-09-01T00:43:17.402Z,100239.78
2023-09-01T00:45:44.751Z,100233.78
2023-09-01T00:48:14.591Z,100238.94
2023-09-01T00:50:42.213Z,100234.28
2023-09-01T00:53:09.322Z,100227.50
2023-09-01T00:55:36.994Z,100228.28
2023-09-01T00:58:04.356Z,100230.44
2023-09-01T01:00:33.926Z,100233.41
2023-09-01T01:03:06.734Z,100241.56
2023-09-01T01:05:51.249Z,100235.09
2023-09-01T01:09:01.591Z,100235.00
2023-09-01T01:11:36.455Z,100232.88
2023-09-01T01:14:07.848Z,100236.91
2023-09-01T01:16:35.377Z,100228.47
2023-09-01T01:19:20.229Z,100236.97
2023-09-01T01:21:51.877Z,100225.22
2023-09-01T01:24:19.046Z,100238.13
2023-09-01T01:26:45.647Z,100245.19
2023-09-01T01:29:12.158Z,100243.72
2023-09-01T01:31:39.198Z,100253.03
2023-09-01T01:34:20.970Z,100237.47
2023-09-01T01:36:54.456Z,100243.28
2023-09-01T01:39:26.242Z,100245.25
2023-09-01T01:41:57.706Z,100256.88
2023-09-01T01:44:36.421Z,100254.25
2023-09-01T01:47:05.238Z,100254.16
2023-09-01T01:49:32.170Z,100254.41
2023-09-01T01:51:59.813Z,100247.13
2023-09-01T01:54:26.416Z,100251.47
2023-09-01T01:56:53.755Z,100254.94
2023-09-01T01:59:20.403Z,100252.69
2023-09-01T02:01:46.998Z,100254.84
2023-09-01T02:04:13.647Z,100247.28
2023-09-01T02:06:40.340Z,100241.88
2023-09-01T02:09:11.047Z,100251.00
2023-09-01T02:11:38.043Z,100245.25
2023-09-01T02:14:05.538Z,100243.03
2023-09-01T02:16:32.391Z,100239.25
2023-09-01T02:18:59.237Z,100250.06
2023-09-01T02:21:25.949Z,100240.06
2023-09-01T02:23:52.529Z,100248.38
2023-09-01T02:26:23.124Z,100237.78
2023-09-01T02:28:51.035Z,100244.16
2023-09-01T02:31:17.937Z,100244.16
2023-09-01T02:33:44.964Z,100247.13
2023-09-01T02:36:29.882Z,100247.28
2023-09-01T02:38:57.593Z,100244.16
2023-09-01T02:41:24.771Z,100250.41
2023-09-01T02:43:52.129Z,100246.59
2023-09-01T02:46:18.993Z,100238.50
2023-09-01T02:48:45.892Z,100250.16
2023-09-01T02:51:12.470Z,100248.25
2023-09-01T02:53:39.269Z,100242.53
2023-09-01T02:56:08.518Z,100241.88
2023-09-01T02:58:35.859Z,100241.53
2023-09-01T03:01:09.606Z,100231.84
2023-09-01T03:03:44.547Z,100245.81
2023-09-01T03:06:11.870Z,100235.00
2023-09-01T03:08:39.479Z,100244.16
2023-09-01T03:11:06.696Z,100237.16
2023-09-01T03:13:33.491Z,100240.66
2023-09-01T03:16:00.345Z,100242.75
2023-09-01T03:18:27.054Z,100240.91
2023-09-01T03:20:54.724Z,100239.25
2023-09-01T03:23:22.541Z,100244.66
2023-09-01T03:25:56.687Z,100248.84
2023-09-01T03:28:23.833Z,100240.06
2023-09-01T03:30:50.548Z,100237.16
2023-09-01T03:33:17.350Z,100244.16
2023-09-01T03:35:44.002Z,100245.81
2023-09-01T03:38:10.574Z,100249.50
2023-09-01T03:40:37.959Z,100251.28
2023-09-01T03:43:04.624Z,100254.25
2023-09-01T03:45:31.170Z,100261.47
2023-09-01T03:47:57.822Z,100257.81
2023-09-01T03:50:24.307Z,100260.13
2023-09-01T03:52:50.969Z,100251.38
2023-09-01T03:55:17.525Z,100247.16
2023-09-01T03:57:45.264Z,100240.56
2023-09-01T04:00:13.053Z,100243.72
2023-09-01T04:02:39.705Z,100250.22
2023-09-01T04:05:06.508Z,100242.53
2023-09-01T04:07:33.149Z,100253.47
2023-09-01T04:09:59.689Z,100257.69
2023-09-01T04:12:26.319Z,100247.28
2023-09-01T04:14:52.896Z,100246.88
2023-09-01T04:17:19.564Z,100249.72
2023-09-01T04:19:49.095Z,100259.31
2023-09-01T04:22:15.943Z,100254.31
2023-09-01T04:24:42.799Z,100254.00
2023-09-01T04:27:09.429Z,100255.88
2023-09-01T04:29:38.180Z,100256.03
2023-09-01T04:32:05.113Z,100258.88
2023-09-01T04:34:33.507Z,100256.69
2023-09-01T04:37:00.085Z,100264.81
2023-09-01T04:39:26.593Z,100262.25
2023-09-01T04:41:53.221Z,100262.44
2023-09-01T04:44:19.912Z,100263.66
2023-09-01T04:46:46.516Z,100269.22
2023-09-01T04:49:13.073Z,100278.00
2023-09-01T04:51:39.665Z,100278.94
2023-09-01T04:54:06.165Z,100278.81
2023-09-01T04:56:34.185Z,100271.94
2023-09-01T04:59:00.784Z,100278.66
2023-09-01T05:01:27.345Z,100272.34
2023-09-01T05:03:53.948Z,100279.53
2023-09-01T05:06:20.495Z,100274.53
2023-09-01T05:08:47.088Z,100283.63
2023-09-01T05:11:13.631Z,100277.00
2023-09-01T05:13:40.220Z,100285.00
2023-09-01T05:16:08.593Z,100291.91
2023-09-01T05:18:35.384Z,100297.22
2023-09-01T05:21:01.988Z,100295.00
2023-09-01T05:23:32.550Z,100296.78
2023-09-01T05:25:59.165Z,100290.50
2023-09-01T05:28:25.670Z,100296.88
2023-09-01T05:30:52.306Z,100300.97
2023-09-01T05:33:18.892Z,100298.75
2023-09-01T05:35:45.519Z,100300.72
2023-09-01T05:38:12.153Z,100292.31
2023-09-01T05:40:39.115Z,100299.81
2023-09-01T05:43:06.022Z,100292.38
2023-09-01T05:45:32.701Z,100294.94
2023-09-01T05:47:59.499Z,100293.41
2023-09-01T05:50:26.249Z,100289.66
2023-09-01T05:52:52.973Z,100304.34
2023-09-01T05:55:19.495Z,100294.13
2023-09-01T05:57:46.089Z,100291.41
2023-09-01T06:00:12.861Z,100298.78
2023-09-01T06:02:39.666Z,100299.84
2023-09-01T06:05:06.903Z,100296.25
2023-09-01T06:07:33.576Z,100297.59
2023-09-01T06:10:00.202Z,100305.97
2023-09-01T06:12:26.754Z,100304.41
2023-09-01T06:14:53.370Z,100305.47
2023-09-01T06:17:26.767Z,100313.34
2023-09-01T06:19:59.371Z,100314.69
2023-09-01T06:22:25.876Z,100314.41
2023-09-01T06:24:52.531Z,100316.31
2023-09-01T06:27:19.238Z,100313.03
2023-09-01T06:29:45.828Z,100311.72
2023-09-01T06:32:13.113Z,100315.31
2023-09-01T06:34:39.890Z,100317.53
2023-09-01T06:37:06.627Z,100317.53
2023-09-01T06:39:33.787Z,100318.63
2023-09-01T06:42:00.526Z,100320.84
2023-09-01T06:44:27.193Z,100319.28
2023-09-01T06:46:53.785Z,100320.41
2023-09-01T06:49:20.360Z,100325.59
2023-09-01T06:51:46.961Z,100325.41
2023-09-01T06:54:13.468Z,100330.56
2023-09-01T06:56:40.046Z,100325.78
2023-09-01T06:59:06.543Z,100329.56
2023-09-01T07:01:33.202Z,100329.97
2023-09-01T07:03:59.846Z,100337.34
2023-09-01T07:06:26.469Z,100337.59
2023-09-01T07:08:52.966Z,100348.16
2023-09-01T07:11:20.941Z,100336.41
2023-09-01T07:13:51.006Z,100332.88
2023-09-01T07:16:17.756Z,100341.91
2023-09-01T07:18:44.427Z,100337.84
2023-09-01T07:21:11.018Z,100333.28
2023-09-01T07:23:37.520Z,100332.66
2023-09-01T07:26:05.089Z,100323.38
2023-09-01T07:28:31.668Z,100320.13
2023-09-01T07:30:58.257Z,100321.06
2023-09-01T07:33:24.991Z,100324.50
2023-09-01T07:35:53.544Z,100326.69
2023-09-01T07:38:20.239Z,100334.88
2023-09-01T07:40:46.993Z,100332.19
2023-09-01T07:43:13.712Z,100334.38
2023-09-01T07:45:41.095Z,100332.78
2023-09-01T07:48:20.768Z,100332.28
2023-09-01T07:50:49.845Z,100347.50
2023-09-01T07:53:16.492Z,100341.28
2023-09-01T07:55:43.167Z,100346.75
2023-09-01T07:58:09.848Z,100346.00
2023-09-01T08:00:39.064Z,100360.13
2023-09-01T08:03:07.374Z,100348.72
2023-09-01T08:05:34.074Z,100353.09
2023-09-01T08:08:00.658Z,100353.91
2023-09-01T08:10:27.234Z,100345.47
2023-09-01T08:12:53.822Z,100343.84
2023-09-01T08:15:20.435Z,100333.78
2023-09-01T08:17:47.358Z,100324.78
2023-09-01T08:20:17.381Z,100325.06
2023-09-01T08:22:44.154Z,100325.84
2023-09-01T08:25:10.829Z,100326.91
2023-09-01T08:27:37.448Z,100329.59
2023-09-01T08:30:05.048Z,100335.00
2023-09-01T08:32:31.691Z,100331.16
2023-09-01T08:34:58.361Z,100326.75
2023-09-01T08:37:24.978Z,100324.84
2023-09-01T08:39:51.560Z,100322.88
2023-09-01T08:42:20.335Z,100321.72
2023-09-01T08:44:47.529Z,100316.75
2023-09-01T08:47:23.810Z,100319.94
2023-09-01T08:49:51.498Z,100311.69
2023-09-01T08:52:21.657Z,100305.88
2023-09-01T08:54:49.397Z,100311.03
2023-09-01T08:57:16.110Z,100309.06
2023-09-01T08:59:44.179Z,100317.97
2023-09-01T09:02:11.111Z,100311.63
2023-09-01T09:04:37.964Z,100317.78
2023-09-01T09:07:19.518Z,100314.91
2023-09-01T09:10:00.061Z,100315.09
2023-09-01T09:12:40.795Z,100315.25
2023-09-01T09:15:07.945Z,100318.53
2023-09-01T09:17:42.269Z,100312.41
2023-09-01T09:20:09.944Z,100311.50
2023-09-01T09:22:54.105Z,100315.41
2023-09-01T09:25:34.860Z,100315.88
2023-09-01T09:28:11.000Z,100306.50
2023-09-01T09:30:37.683Z,100299.81
2023-09-01T09:33:06.572Z,100305.13
2023-09-01T09:35:48.942Z,100305.00
2023-09-01T09:38:15.792Z,100306.88
2023-09-01T09:40:42.632Z,100310.91
2023-09-01T09:43:10.775Z,100310.34
2023-09-01T09:45:39.967Z,100306.50
2023-09-01T09:48:07.295Z,100316.00
2023-09-01T09:50:36.114Z,100323.34
2023-09-01T09:53:07.068Z,100326.44
2023-09-01T09:55:54.828Z,100329.91
2023-09-01T09:58:33.283Z,100332.78
2023-09-01T10:01:03.939Z,100329.75
2023-09-01T10:03:31.162Z,100339.69
2023-09-01T10:05:59.581Z,100329.84
2023-09-01T10:08:27.618Z,100334.50
2023-09-01T10:10:58.581Z,100336.13
2023-09-01T10:13:26.713Z,100335.63
2023-09-01T10:15:54.569Z,100335.31
2023-09-01T10:18:22.473Z,100331.16
2023-09-01T10:20:49.564Z,100327.84
2023-09-01T10:23:16.163Z,100322.28
2023-09-01T10:26:03.107Z,100338.63
2023-09-01T10:28:29.773Z,100335.50
2023-09-01T10:31:16.425Z,100339.06
2023-09-01T10:33:43.203Z,100341.16
2023-09-01T10:36:15.096Z,100334.19
2023-09-01T10:38:42.251Z,100336.00
2023-09-01T10:41:08.931Z,100327.72
2023-09-01T10:43:38.859Z,100339.69
2023-09-01T10:46:17.728Z,100340.31
2023-09-01T10:49:00.726Z,100341.34
2023-09-01T10:51:35.463Z,100337.28
2023-09-01T10:54:22.290Z,100339.34
2023-09-01T10:57:05.848Z,100333.88
2023-09-01T10:59:36.278Z,100348.22
2023-09-01T11:02:19.757Z,100349.69
2023-09-01T11:04:47.141Z,100341.94
2023-09-01T11:07:14.537Z,100345.00
2023-09-01T11:09:41.226Z,100336.78
2023-09-01T11:12:09.328Z,100343.66
2023-09-01T11:14:38.294Z,100337.16
2023-09-01T11:17:05.469Z,100341.09
2023-09-01T11:19:47.650Z,100340.91
2023-09-01T11:22:14.851Z,100332.47
2023-09-01T11:24:46.060Z,100325.06
2023-09-01T11:27:12.778Z,100331.75
2023-09-01T11:29:39.576Z,100330.69
2023-09-01T11:32:08.353Z,100322.00
2023-09-01T11:34:39.652Z,100318.63
2023-09-01T11:37:06.727Z,100322.00
2023-09-01T11:39:33.383Z,100327.47
2023-09-01T11:42:01.333Z,100338.41
2023-09-01T11:44:28.147Z,100326.94
2023-09-01T11:46:54.885Z,100335.16
2023-09-01T11:49:21.591Z,100346.09
2023-09-01T11:51:48.202Z,100337.38
2023-09-01T11:54:14.886Z,100323.13
2023-09-01T11:56:41.533Z,100324.78
2023-09-01T11:59:08.117Z,100326.44
2023-09-01T12:01:43.405Z,100319.75
2023-09-01T12:04:10.989Z,100320.34
2023-09-01T12:06:46.112Z,100326.84
2023-09-01T12:09:18.397Z,100326.47
2023-09-01T12:11:57.291Z,100326.09
2023-09-01T12:14:24.996Z,100318.69
2023-09-01T12:16:54.961Z,100312.81
2023-09-01T12:19:23.955Z,100323.09
2023-09-01T12:21:52.080Z,100319.41
2023-09-01T12:24:18.739Z,100310.94
2023-09-01T12:26:45.346Z,100315.00
2023-09-01T12:29:11.965Z,100313.06
2023-09-01T12:31:38.670Z,100321.28
2023-09-01T12:34:05.516Z,100321.28
2023-09-01T12:36:32.381Z,100314.16
2023-09-01T12:38:58.966Z,100318.00
2023-09-01T12:41:25.645Z,100318.00
2023-09-01T12:43:52.265Z,100318.84
2023-09-01T12:46:18.930Z,100315.78
2023-09-01T12:48:45.641Z,100330.59
2023-09-01T12:51:13.074Z,100325.13
2023-09-01T12:53:40.550Z,100325.13
2023-09-01T12:56:11.896Z,100315.00
2023-09-01T12:58:38.536Z,100321.28
2023-09-01T13:01:05.409Z,100321.28
2023-09-01T13:03:32.183Z,100307.25
2023-09-01T13:05:58.963Z,100307.25
2023-09-01T13:08:28.015Z,100305.06
2023-09-01T13:10:55.289Z,100305.84
2023-09-01T13:13:22.787Z,100305.22
2023-09-01T13:15:50.051Z,100296.44
2023-09-01T13:18:17.301Z,100289.22
2023-09-01T13:20:43.979Z,100297.34
2023-09-01T13:23:10.611Z,100297.22
2023-09-01T13:25:37.413Z,100293.94
2023-09-01T13:28:04.382Z,100293.31
2023-09-01T13:30:31.161Z,100289.47
2023-09-01T13:32:57.892Z,100297.38
2023-09-01T13:35:24.563Z,100291.09
2023-09-01T13:37:51.188Z,100295.25
2023-09-01T13:40:17.908Z,100291.69
2023-09-01T13:42:44.520Z,100297.47
2023-09-01T13:45:11.410Z,100294.47
2023-09-01T13:47:38.032Z,100296.72
2023-09-01T13:50:05.051Z,100294.31
2023-09-01T13:52:31.687Z,100292.34
2023-09-01T13:54:58.266Z,100298.94
2023-09-01T13:57:24.895Z,100296.53
2023-09-01T13:59:52.110Z,100308.59
2023-09-01T14:02:19.280Z,100297.13
2023-09-01T14:04:49.542Z,100302.09
2023-09-01T14:07:17.409Z,100294.19
2023-09-01T14:09:44.020Z,100306.06
2023-09-01T14:12:11.561Z,100303.09
2023-09-01T14:14:38.167Z,100294.69
2023-09-01T14:17:04.977Z,100294.50
2023-09-01T14:19:31.611Z,100295.69
2023-09-01T14:21:58.495Z,100301.78
2023-09-01T14:24:25.140Z,100301.03
2023-09-01T14:26:55.431Z,100306.59
2023-09-01T14:29:22.534Z,100295.47
2023-09-01T14:31:49.251Z,100311.88
2023-09-01T14:34:15.897Z,100308.94
2023-09-01T14:36:42.548Z,100305.16
2023-09-01T14:39:09.288Z,100309.31
2023-09-01T14:41:35.901Z,100310.72
2023-09-01T14:44:03.154Z,100306.66
2023-09-01T14:46:34.164Z,100318.22
2023-09-01T14:49:02.210Z,100318.81
2023-09-01T14:51:29.943Z,100313.91
2023-09-01T14:53:56.789Z,100313.97
2023-09-01T14:56:24.848Z,100321.16
2023-09-01T14:58:54.539Z,100318.50
2023-09-01T15:01:23.397Z,100318.63
2023-09-01T15:03:50.435Z,100326.06
2023-09-01T15:06:17.141Z,100325.94
2023-09-01T15:08:43.792Z,100318.09
2023-09-01T15:11:10.394Z,100325.56
2023-09-01T15:13:37.100Z,100313.06
2023-09-01T15:16:04.024Z,100312.34
2023-09-01T15:18:30.706Z,100317.88
2023-09-01T15:21:04.691Z,100317.59
2023-09-01T15:23:31.370Z,100323.75
2023-09-01T15:25:58.201Z,100317.53
2023-09-01T15:28:24.778Z,100308.28
2023-09-01T15:30:51.478Z,100306.94
2023-09-01T15:33:18.950Z,100322.03
2023-09-01T15:35:53.502Z,100312.94
2023-09-01T15:38:20.078Z,100314.47
2023-09-01T15:40:46.696Z,100316.44
2023-09-01T15:43:13.523Z,100320.34
2023-09-01T15:45:46.174Z,100321.47
2023-09-01T15:48:14.217Z,100323.22
2023-09-01T15:50:46.274Z,100334.50
2023-09-01T15:53:14.206Z,100339.72
2023-09-01T15:55:41.418Z,100333.22
2023-09-01T15:58:08.281Z,100331.06
2023-09-01T16:00:38.936Z,100341.41
2023-09-01T16:03:07.545Z,100337.38
2023-09-01T16:05:41.093Z,100338.75
2023-09-01T16:08:07.676Z,100348.88
2023-09-01T16:10:35.413Z,100343.41
2023-09-01T16:13:02.678Z,100345.31
2023-09-01T16:15:29.894Z,100345.84
2023-09-01T16:17:56.757Z,100342.00
2023-09-01T16:20:25.800Z,100349.13
2023-09-01T16:22:52.715Z,100339.03
2023-09-01T16:25:19.609Z,100345.28
2023-09-01T16:27:46.708Z,100345.28
2023-09-01T16:30:14.149Z,100348.03
2023-09-01T16:32:41.075Z,100355.13
2023-09-01T16:35:23.950Z,100343.56
2023-09-01T16:37:51.917Z,100355.13
2023-09-01T16:40:19.186Z,100350.75
2023-09-01T16:42:45.981Z,100349.13
2023-09-01T16:45:14.696Z,100358.94
2023-09-01T16:47:42.845Z,100350.75
2023-09-01T16:50:11.361Z,100354.56
2023-09-01T16:52:38.948Z,100360.03
2023-09-01T16:55:06.341Z,100359.25
2023-09-01T16:57:33.952Z,100363.31
2023-09-01T17:00:00.672Z,100364.72
2023-09-01T17:02:27.318Z,100363.38
2023-09-01T17:04:54.037Z,100363.97
2023-09-01T17:07:20.646Z,100376.28
2023-09-01T17:10:08.447Z,100376.19
2023-09-01T17:12:35.140Z,100380.69
2023-09-01T17:15:02.678Z,100377.41
2023-09-01T17:17:29.330Z,100375.81
2023-09-01T17:19:55.960Z,100374.16
2023-09-01T17:22:22.579Z,100372.53
2023-09-01T17:24:49.141Z,100377.19
2023-09-01T17:27:15.770Z,100377.75
2023-09-01T17:29:42.434Z,100387.88
2023-09-01T17:32:09.066Z,100387.88
2023-09-01T17:34:35.661Z,100384.59
2023-09-01T17:37:04.690Z,100383.78
2023-09-01T17:39:31.593Z,100391.47
2023-09-01T17:41:58.183Z,100387.09
2023-09-01T17:44:24.797Z,100399.13
2023-09-01T17:46:51.635Z,100399.13
2023-09-01T17:49:18.198Z,100398.56
2023-09-01T17:51:44.780Z,100398.31
2023-09-01T17:54:11.349Z,100407.59
2023-09-01T17:56:37.995Z,100407.88
2023-09-01T17:59:04.755Z,100402.97
2023-09-01T18:01:31.792Z,100403.25
2023-09-01T18:03:58.589Z,100406.28
2023-09-01T18:06:27.801Z,100411.16
2023-09-01T18:08:55.694Z,100410.13
2023-09-01T19:48:40.262Z,100533.22
2023-09-01T19:51:08.582Z,100536.53
2023-09-01T19:53:36.913Z,100544.72
2023-09-01T19:56:14.267Z,100546.34
2023-09-01T19:59:06.789Z,100539.78
2023-09-01T20:01:34.671Z,100549.38
2023-09-01T20:04:01.997Z,100557.00
2023-09-01T20:06:29.485Z,100562.72
2023-09-01T20:09:00.311Z,100560.81
2023-09-01T20:11:27.700Z,100558.09
2023-09-01T20:13:55.284Z,100554.84
2023-09-01T20:16:30.958Z,100556.72
2023-09-01T20:19:29.561Z,100557.28
2023-09-01T20:22:00.611Z,100558.94
2023-09-01T20:24:27.196Z,100552.91
2023-09-01T20:26:53.813Z,100552.41
2023-09-01T20:29:21.164Z,100552.63
2023-09-01T20:31:47.730Z,100546.38
2023-09-01T20:34:14.330Z,100557.56
2023-09-01T20:36:40.999Z,100560.56
2023-09-01T20:39:07.601Z,100555.41
2023-09-01T20:41:34.358Z,100557.28
2023-09-01T20:44:00.948Z,100554.03
2023-09-01T20:46:27.846Z,100558.94
2023-09-01T20:48:54.479Z,100561.13
2023-09-01T20:51:22.901Z,100555.13
2023-09-01T20:53:49.556Z,100562.75
2023-09-01T20:56:16.133Z,100556.22
2023-09-01T20:58:42.794Z,100570.94
2023-09-01T21:01:09.791Z,100566.00
2023-09-01T21:03:36.422Z,100575.81
2023-09-01T21:06:03.256Z,100574.72
2023-09-01T21:08:29.924Z,100576.94
2023-09-01T21:10:56.495Z,100577.44
2023-09-01T21:13:23.111Z,100580.72
2023-09-01T21:15:51.716Z,100581.00
2023-09-01T21:18:18.494Z,100584.53
2023-09-01T21:20:45.165Z,100582.09
2023-09-01T21:23:11.803Z,100586.44
2023-09-01T21:25:39.249Z,100587.78
2023-09-01T21:28:06.052Z,100597.31
2023-09-01T21:30:32.688Z,100594.31
2023-09-01T21:33:01.782Z,100602.22
2023-09-01T21:35:28.390Z,100612.03
2023-09-01T21:37:55.152Z,100615.53
2023-09-01T21:40:21.868Z,100616.38
2023-09-01T21:42:48.521Z,100615.28
2023-09-01T21:45:15.115Z,100612.25
2023-09-01T21:47:41.733Z,100613.88
2023-09-01T21:50:08.983Z,100618.22
2023-09-01T21:52:35.583Z,100611.69
2023-09-01T21:55:02.426Z,100620.94
2023-09-01T21:57:30.952Z,100620.63
2023-09-01T21:59:57.833Z,100621.19
2023-09-01T22:02:24.510Z,100617.06
2023-09-01T22:04:52.565Z,100619.75
2023-09-01T22:07:19.397Z,100626.56
2023-09-01T22:09:46.071Z,100627.38
2023-09-01T22:12:12.690Z,100626.22
2023-09-01T22:14:39.440Z,100637.13
2023-09-01T22:17:06.538Z,100637.63
2023-09-01T22:19:33.252Z,100633.28
2023-09-01T22:22:00.039Z,100633.78
2023-09-01T22:24:35.569Z,100639.22
2023-09-01T22:27:02.229Z,100642.44
2023-09-01T22:29:29.049Z,100648.41
2023-09-01T22:31:58.257Z,100647.34
2023-09-01T22:34:25.451Z,100649.47
2023-09-01T22:36:52.152Z,100646.19
2023-09-01T22:39:18.818Z,100642.09
2023-09-01T22:41:45.507Z,100645.34
2023-09-01T22:44:12.157Z,100650.22
2023-09-01T22:46:38.786Z,100653.22
2023-09-01T22:49:05.475Z,100649.94
2023-09-01T22:51:32.145Z,100655.34
2023-09-01T22:53:58.743Z,100648.28
2023-09-01T22:56:25.337Z,100652.09
2023-09-01T22:58:51.942Z,100647.16
2023-09-01T23:01:18.608Z,100649.34
2023-09-01T23:03:45.292Z,100656.13
2023-09-01T23:06:11.949Z,100653.66
2023-09-01T23:08:38.597Z,100650.38
2023-09-01T23:11:05.218Z,100667.75
2023-09-01T23:13:32.017Z,100656.34
2023-09-01T23:15:58.719Z,100665.00
2023-09-01T23:18:25.917Z,100657.94
2023-09-01T23:20:54.264Z,100659.00
2023-09-01T23:23:21.202Z,100668.22
2023-09-01T23:25:51.619Z,100666.56
2023-09-01T23:28:18.566Z,100670.41
2023-09-01T23:30:45.851Z,100667.09
2023-09-01T23:33:12.500Z,100669.25
2023-09-01T23:35:39.244Z,100673.06
2023-09-01T23:38:05.941Z,100668.97
2023-09-01T23:40:34.397Z,100669.47
2023-09-01T23:43:01.352Z,100664.28
2023-09-01T23:45:28.254Z,100660.47
2023-09-01T23:47:56.725Z,100673.50
2023-09-01T23:50:23.472Z,100677.28
2023-09-01T23:52:50.071Z,100677.81
2023-09-01T23:55:17.038Z,100676.44
2023-09-01T23:57:43.690Z,100675.59
